If you wish to contribute or participate in the discussions about articles you are invited to join SKYbrary as a registered user

 Actions

Klawock Airport

From SKYbrary Wiki

PAKW
Airport
ICAO: PAKW – IATA: KLW
Summary
Name Klawock Airport
Region North America
Territory Alaska US.gif
Location , Alaska
Serving Klawock
Elevation 24.384 m
80 ft
80 ft24.384 m
Type medium airport
Coordinates 55° 34' 45.00" N, 133° 4' 34.00" W
Runways
Designator Length Width Surface ROPS
2/20 1524 m5,000 ft
30 m98.425 ft
ASP /


METAR
Observation PAKW 150153Z AUTO VRB04G19KT 4SM -RA FEW032 BKN043 OVC070 08/06 A2946 RMK SLP978 P0013 T00830056 TSNO VIA AUTODIAL
Station Klawock, Klawock Airport
Date/Time 15 October 2019 01:53:00
Wind direction °
Wind speed 04 kts
Lowest cloud amount few clouds
Temperature 8.3°C
Dew point 5.6°C
Humidity 83%
QNH hPa
Weather condition light rain